SKRH/RCH METAR and TAF weather

Enter ICAO airport designator
Station Type Date Time Source
SKRH METAR 2019/06/26 20:00 UTC NOAA

SKRH 262000Z 10018G28KT 9999 FEW020 35/22 A2971


Station Type Date Time Source
SKRH Decoded METAR 2019/06/26 20:00 UTC NOAA

Riohacha / Almirante Padilla, Colombia (SKRH) 11-32N 072-56W 4M
Jun 26, 2019 - 04:00 PM EDT / 2019.06.26 2000 UTC
Wind: from the E (100 degrees) at 21 MPH (18 KT) gusting to 32 MPH (28 KT):0
Visibility: greater than 7 mile(s):0
Sky conditions: mostly clear
Temperature: 95 F (35 C)
Heat index: 102.6 F (39.2 C):1
Dew Point: 71 F (22 C)
Relative Humidity: 46%
Pressure (altimeter): 29.71 in. Hg (1006 hPa)
ob: SKRH 262000Z 10018G28KT 9999 FEW020 35/22 A2971
cycle: 20

Station Type Date Time Source
SKRH TAF 2015/07/31 18:51 UTC NOAA

TAF SKRH 311700Z 3118/0118 07010KT 9999 SCT017
TEMPO 3120/0103 09015KT CAVOK
TEMPO 0109/0114 9000 BKN015 TX36/3118Z TN28/0110Z

Example: see airport list